sensor_id;sensor_type;location;lat;lon;timestamp;P1;durP1;ratioP1;P2;durP2;ratioP2
8113;SDS011;4099;52.684;9.918;2023-03-01T00:02:18;5.17;;;3.10;;
8113;SDS011;4099;52.684;9.918;2023-03-01T00:07:20;3.80;;;2.83;;
8113;SDS011;4099;52.684;9.918;2023-03-01T00:12:21;4.03;;;3.00;;
8113;SDS011;4099;52.684;9.918;2023-03-01T00:17:25;3.67;;;3.03;;
8113;SDS011;4099;52.684;9.918;2023-03-01T00:22:28;4.20;;;2.60;;
8113;SDS011;4099;52.684;9.918;2023-03-01T00:27:30;3.23;;;2.60;;
8113;SDS011;4099;52.684;9.918;2023-03-01T00:32:33;4.30;;;2.80;;
8113;SDS011;4099;52.684;9.918;2023-03-01T00:37:36;6.60;;;2.90;;
8113;SDS011;4099;52.684;9.918;2023-03-01T00:42:38;3.63;;;2.80;;
8113;SDS011;4099;52.684;9.918;2023-03-01T00:47:41;3.83;;;2.90;;
8113;SDS011;4099;52.684;9.918;2023-03-01T00:52:42;3.57;;;3.07;;
8113;SDS011;4099;52.684;9.918;2023-03-01T00:57:44;4.13;;;2.80;;
8113;SDS011;4099;52.684;9.918;2023-03-01T01:02:48;4.13;;;3.00;;
8113;SDS011;4099;52.684;9.918;2023-03-01T01:07:49;3.90;;;3.00;;
8113;SDS011;4099;52.684;9.918;2023-03-01T01:12:51;4.77;;;3.53;;
8113;SDS011;4099;52.684;9.918;2023-03-01T01:17:54;7.27;;;4.97;;
8113;SDS011;4099;52.684;9.918;2023-03-01T01:22:58;9.27;;;5.67;;
8113;SDS011;4099;52.684;9.918;2023-03-01T01:28:00;10.43;;;5.97;;
8113;SDS011;4099;52.684;9.918;2023-03-01T01:33:03;8.70;;;5.87;;
8113;SDS011;4099;52.684;9.918;2023-03-01T01:38:04;8.17;;;5.30;;
8113;SDS011;4099;52.684;9.918;2023-03-01T01:43:08;9.77;;;5.83;;
8113;SDS011;4099;52.684;9.918;2023-03-01T01:48:16;8.93;;;5.03;;
8113;SDS011;4099;52.684;9.918;2023-03-01T01:53:21;8.27;;;4.97;;
8113;SDS011;4099;52.684;9.918;2023-03-01T01:58:23;7.60;;;4.37;;
8113;SDS011;4099;52.684;9.918;2023-03-01T02:03:30;6.37;;;4.40;;
8113;SDS011;4099;52.684;9.918;2023-03-01T02:08:38;7.77;;;4.50;;
8113;SDS011;4099;52.684;9.918;2023-03-01T02:13:41;6.63;;;4.80;;
8113;SDS011;4099;52.684;9.918;2023-03-01T02:18:45;6.83;;;4.50;;
8113;SDS011;4099;52.684;9.918;2023-03-01T02:23:48;5.93;;;3.97;;
8113;SDS011;4099;52.684;9.918;2023-03-01T02:28:51;5.87;;;4.07;;
8113;SDS011;4099;52.684;9.918;2023-03-01T02:33:53;4.80;;;3.70;;
8113;SDS011;4099;52.684;9.918;2023-03-01T02:38:55;6.97;;;3.63;;
8113;SDS011;4099;52.684;9.918;2023-03-01T02:44:01;5.90;;;4.00;;
8113;SDS011;4099;52.684;9.918;2023-03-01T02:49:15;6.70;;;3.60;;
8113;SDS011;4099;52.684;9.918;2023-03-01T02:54:36;5.37;;;3.60;;
8113;SDS011;4099;52.684;9.918;2023-03-01T02:59:45;5.67;;;3.77;;
8113;SDS011;4099;52.684;9.918;2023-03-01T03:04:47;4.70;;;3.90;;
8113;SDS011;4099;52.684;9.918;2023-03-01T03:09:49;8.67;;;5.40;;
8113;SDS011;4099;52.684;9.918;2023-03-01T03:14:52;8.90;;;6.30;;
8113;SDS011;4099;52.684;9.918;2023-03-01T03:19:54;7.63;;;5.10;;
8113;SDS011;4099;52.684;9.918;2023-03-01T03:24:56;10.33;;;6.27;;
8113;SDS011;4099;52.684;9.918;2023-03-01T03:29:59;8.77;;;5.33;;
8113;SDS011;4099;52.684;9.918;2023-03-01T03:35:01;6.90;;;5.07;;
8113;SDS011;4099;52.684;9.918;2023-03-01T03:40:03;7.57;;;5.10;;
8113;SDS011;4099;52.684;9.918;2023-03-01T03:45:16;7.20;;;4.47;;
8113;SDS011;4099;52.684;9.918;2023-03-01T03:50:19;7.20;;;4.63;;
8113;SDS011;4099;52.684;9.918;2023-03-01T03:55:21;6.07;;;4.00;;
8113;SDS011;4099;52.684;9.918;2023-03-01T04:00:24;5.10;;;4.03;;
8113;SDS011;4099;52.684;9.918;2023-03-01T04:05:26;6.90;;;4.40;;
8113;SDS011;4099;52.684;9.918;2023-03-01T04:10:29;7.27;;;4.40;;
8113;SDS011;4099;52.684;9.918;2023-03-01T04:15:34;5.70;;;4.63;;
8113;SDS011;4099;52.684;9.918;2023-03-01T04:20:36;4.93;;;3.90;;
8113;SDS011;4099;52.684;9.918;2023-03-01T04:25:39;7.23;;;4.87;;
8113;SDS011;4099;52.684;9.918;2023-03-01T04:30:43;7.50;;;4.33;;
8113;SDS011;4099;52.684;9.918;2023-03-01T04:35:45;7.30;;;4.60;;
8113;SDS011;4099;52.684;9.918;2023-03-01T04:40:49;11.73;;;4.97;;
8113;SDS011;4099;52.684;9.918;2023-03-01T04:45:53;14.10;;;7.40;;
8113;SDS011;4099;52.684;9.918;2023-03-01T04:50:55;9.70;;;6.83;;
8113;SDS011;4099;52.684;9.918;2023-03-01T04:55:56;10.13;;;6.90;;
8113;SDS011;4099;52.684;9.918;2023-03-01T05:01:00;11.17;;;7.40;;
8113;SDS011;4099;52.684;9.918;2023-03-01T05:06:02;9.60;;;7.17;;
8113;SDS011;4099;52.684;9.918;2023-03-01T05:11:04;11.57;;;7.43;;
8113;SDS011;4099;52.684;9.918;2023-03-01T05:16:10;12.10;;;7.60;;
8113;SDS011;4099;52.684;9.918;2023-03-01T05:21:12;11.83;;;8.43;;
8113;SDS011;4099;52.684;9.918;2023-03-01T05:26:16;11.03;;;7.73;;
8113;SDS011;4099;52.684;9.918;2023-03-01T05:31:23;11.87;;;7.73;;
8113;SDS011;4099;52.684;9.918;2023-03-01T05:36:24;10.33;;;6.33;;
8113;SDS011;4099;52.684;9.918;2023-03-01T05:41:26;13.67;;;6.97;;
8113;SDS011;4099;52.684;9.918;2023-03-01T05:46:29;12.60;;;7.60;;
8113;SDS011;4099;52.684;9.918;2023-03-01T05:51:31;10.90;;;7.07;;
8113;SDS011;4099;52.684;9.918;2023-03-01T05:56:34;11.60;;;7.80;;
8113;SDS011;4099;52.684;9.918;2023-03-01T06:01:37;10.23;;;7.20;;
8113;SDS011;4099;52.684;9.918;2023-03-01T06:06:39;9.87;;;6.53;;
8113;SDS011;4099;52.684;9.918;2023-03-01T06:11:41;9.17;;;6.20;;
8113;SDS011;4099;52.684;9.918;2023-03-01T06:16:44;10.13;;;6.53;;
8113;SDS011;4099;52.684;9.918;2023-03-01T06:21:46;10.17;;;7.27;;
8113;SDS011;4099;52.684;9.918;2023-03-01T06:26:47;10.60;;;7.57;;
8113;SDS011;4099;52.684;9.918;2023-03-01T06:31:50;13.30;;;8.43;;
8113;SDS011;4099;52.684;9.918;2023-03-01T06:36:52;12.13;;;8.43;;
8113;SDS011;4099;52.684;9.918;2023-03-01T06:41:54;14.50;;;8.63;;
8113;SDS011;4099;52.684;9.918;2023-03-01T06:46:57;12.10;;;7.97;;
8113;SDS011;4099;52.684;9.918;2023-03-01T06:51:59;14.77;;;8.23;;
8113;SDS011;4099;52.684;9.918;2023-03-01T06:57:01;13.53;;;7.70;;
8113;SDS011;4099;52.684;9.918;2023-03-01T07:02:04;8.30;;;6.40;;
8113;SDS011;4099;52.684;9.918;2023-03-01T07:07:06;9.90;;;6.40;;
8113;SDS011;4099;52.684;9.918;2023-03-01T07:12:07;10.60;;;6.93;;
8113;SDS011;4099;52.684;9.918;2023-03-01T07:17:12;11.43;;;7.33;;
8113;SDS011;4099;52.684;9.918;2023-03-01T07:22:13;11.90;;;8.10;;
8113;SDS011;4099;52.684;9.918;2023-03-01T07:27:15;11.63;;;7.37;;
8113;SDS011;4099;52.684;9.918;2023-03-01T07:32:18;12.47;;;8.47;;
8113;SDS011;4099;52.684;9.918;2023-03-01T07:37:20;13.47;;;9.43;;
8113;SDS011;4099;52.684;9.918;2023-03-01T07:42:22;14.40;;;10.20;;
8113;SDS011;4099;52.684;9.918;2023-03-01T07:47:25;14.83;;;10.47;;
8113;SDS011;4099;52.684;9.918;2023-03-01T07:52:27;16.67;;;10.07;;
8113;SDS011;4099;52.684;9.918;2023-03-01T07:57:29;23.67;;;13.77;;
8113;SDS011;4099;52.684;9.918;2023-03-01T08:02:32;21.73;;;14.13;;
8113;SDS011;4099;52.684;9.918;2023-03-01T08:07:34;18.80;;;11.77;;
8113;SDS011;4099;52.684;9.918;2023-03-01T08:12:36;20.40;;;12.13;;
8113;SDS011;4099;52.684;9.918;2023-03-01T08:17:39;19.10;;;11.77;;
8113;SDS011;4099;52.684;9.918;2023-03-01T08:22:41;22.70;;;14.00;;
8113;SDS011;4099;52.684;9.918;2023-03-01T08:27:43;24.57;;;15.77;;
8113;SDS011;4099;52.684;9.918;2023-03-01T08:32:46;23.30;;;15.63;;
8113;SDS011;4099;52.684;9.918;2023-03-01T08:37:48;18.17;;;12.23;;
8113;SDS011;4099;52.684;9.918;2023-03-01T08:42:50;21.40;;;12.93;;
8113;SDS011;4099;52.684;9.918;2023-03-01T08:47:53;17.57;;;10.93;;
8113;SDS011;4099;52.684;9.918;2023-03-01T08:52:54;15.23;;;10.87;;
8113;SDS011;4099;52.684;9.918;2023-03-01T08:57:56;14.70;;;10.33;;
8113;SDS011;4099;52.684;9.918;2023-03-01T09:03:00;19.60;;;10.67;;
8113;SDS011;4099;52.684;9.918;2023-03-01T09:08:02;12.90;;;9.43;;
8113;SDS011;4099;52.684;9.918;2023-03-01T09:13:04;13.27;;;9.53;;
8113;SDS011;4099;52.684;9.918;2023-03-01T09:18:07;14.47;;;9.17;;
8113;SDS011;4099;52.684;9.918;2023-03-01T09:23:09;12.43;;;8.60;;
8113;SDS011;4099;52.684;9.918;2023-03-01T09:28:11;12.37;;;9.13;;
8113;SDS011;4099;52.684;9.918;2023-03-01T09:33:14;8.60;;;5.87;;
8113;SDS011;4099;52.684;9.918;2023-03-01T09:38:16;6.17;;;4.83;;
8113;SDS011;4099;52.684;9.918;2023-03-01T09:43:19;8.53;;;5.00;;
8113;SDS011;4099;52.684;9.918;2023-03-01T09:48:29;5.87;;;4.13;;
8113;SDS011;4099;52.684;9.918;2023-03-01T09:53:36;3.90;;;2.93;;
8113;SDS011;4099;52.684;9.918;2023-03-01T09:58:39;5.60;;;3.20;;
8113;SDS011;4099;52.684;9.918;2023-03-01T10:03:55;4.57;;;3.00;;
8113;SDS011;4099;52.684;9.918;2023-03-01T10:09:07;4.57;;;2.77;;
8113;SDS011;4099;52.684;9.918;2023-03-01T10:14:15;2.63;;;2.30;;
8113;SDS011;4099;52.684;9.918;2023-03-01T10:19:27;4.67;;;3.00;;
8113;SDS011;4099;52.684;9.918;2023-03-01T10:24:34;3.77;;;2.70;;
8113;SDS011;4099;52.684;9.918;2023-03-01T10:29:37;3.30;;;2.70;;
8113;SDS011;4099;52.684;9.918;2023-03-01T10:34:47;3.20;;;2.87;;
8113;SDS011;4099;52.684;9.918;2023-03-01T10:39:56;3.63;;;2.73;;
8113;SDS011;4099;52.684;9.918;2023-03-01T10:45:14;4.03;;;2.70;;
8113;SDS011;4099;52.684;9.918;2023-03-01T10:50:20;3.97;;;2.57;;
8113;SDS011;4099;52.684;9.918;2023-03-01T10:55:33;3.10;;;2.60;;
8113;SDS011;4099;52.684;9.918;2023-03-01T11:00:46;2.60;;;2.40;;
8113;SDS011;4099;52.684;9.918;2023-03-01T11:05:55;2.90;;;2.60;;
8113;SDS011;4099;52.684;9.918;2023-03-01T11:11:06;3.77;;;2.57;;
8113;SDS011;4099;52.684;9.918;2023-03-01T11:16:24;2.63;;;2.30;;
8113;SDS011;4099;52.684;9.918;2023-03-01T11:21:30;2.80;;;2.37;;
8113;SDS011;4099;52.684;9.918;2023-03-01T11:26:34;3.57;;;2.30;;
8113;SDS011;4099;52.684;9.918;2023-03-01T11:31:39;3.40;;;2.13;;
8113;SDS011;4099;52.684;9.918;2023-03-01T11:36:44;4.77;;;2.80;;
8113;SDS011;4099;52.684;9.918;2023-03-01T11:41:52;4.67;;;3.50;;
8113;SDS011;4099;52.684;9.918;2023-03-01T11:52:35;3.30;;;2.60;;
8113;SDS011;4099;52.684;9.918;2023-03-01T11:57:55;6.17;;;4.23;;
8113;SDS011;4099;52.684;9.918;2023-03-01T12:03:13;3.80;;;2.57;;
8113;SDS011;4099;52.684;9.918;2023-03-01T12:08:26;2.60;;;2.40;;
8113;SDS011;4099;52.684;9.918;2023-03-01T12:13:51;4.27;;;2.43;;
8113;SDS011;4099;52.684;9.918;2023-03-01T12:19:21;4.17;;;2.27;;
8113;SDS011;4099;52.684;9.918;2023-03-01T12:24:39;2.10;;;1.90;;
8113;SDS011;4099;52.684;9.918;2023-03-01T12:29:49;3.90;;;2.97;;
8113;SDS011;4099;52.684;9.918;2023-03-01T12:40:33;3.03;;;1.87;;
8113;SDS011;4099;52.684;9.918;2023-03-01T12:51:31;2.20;;;1.90;;
8113;SDS011;4099;52.684;9.918;2023-03-01T12:56:37;2.63;;;1.80;;
8113;SDS011;4099;52.684;9.918;2023-03-01T13:01:41;2.60;;;1.93;;
8113;SDS011;4099;52.684;9.918;2023-03-01T13:06:53;8.97;;;6.93;;
8113;SDS011;4099;52.684;9.918;2023-03-01T13:12:15;6.07;;;4.67;;
8113;SDS011;4099;52.684;9.918;2023-03-01T13:17:51;2.30;;;1.73;;
8113;SDS011;4099;52.684;9.918;2023-03-01T13:23:01;3.30;;;1.57;;
8113;SDS011;4099;52.684;9.918;2023-03-01T13:33:44;3.30;;;2.07;;
8113;SDS011;4099;52.684;9.918;2023-03-01T13:38:47;3.60;;;3.10;;
8113;SDS011;4099;52.684;9.918;2023-03-01T13:43:58;2.50;;;1.80;;
8113;SDS011;4099;52.684;9.918;2023-03-01T13:49:00;2.80;;;2.10;;
8113;SDS011;4099;52.684;9.918;2023-03-01T13:54:02;2.30;;;1.70;;
8113;SDS011;4099;52.684;9.918;2023-03-01T13:59:06;1.70;;;1.60;;
8113;SDS011;4099;52.684;9.918;2023-03-01T14:04:20;7.83;;;7.03;;
8113;SDS011;4099;52.684;9.918;2023-03-01T14:09:24;4.73;;;4.33;;
8113;SDS011;4099;52.684;9.918;2023-03-01T14:14:38;18.20;;;16.20;;
8113;SDS011;4099;52.684;9.918;2023-03-01T14:19:45;6.00;;;4.97;;
8113;SDS011;4099;52.684;9.918;2023-03-01T14:24:51;4.97;;;4.47;;
8113;SDS011;4099;52.684;9.918;2023-03-01T14:29:58;2.93;;;2.30;;
8113;SDS011;4099;52.684;9.918;2023-03-01T14:35:01;2.10;;;1.90;;
8113;SDS011;4099;52.684;9.918;2023-03-01T14:40:04;1.90;;;1.60;;
8113;SDS011;4099;52.684;9.918;2023-03-01T14:45:22;2.77;;;1.63;;
8113;SDS011;4099;52.684;9.918;2023-03-01T14:50:26;2.43;;;2.23;;
8113;SDS011;4099;52.684;9.918;2023-03-01T14:55:30;2.90;;;1.77;;
8113;SDS011;4099;52.684;9.918;2023-03-01T15:00:36;2.30;;;2.00;;
8113;SDS011;4099;52.684;9.918;2023-03-01T15:05:39;1.67;;;1.50;;
8113;SDS011;4099;52.684;9.918;2023-03-01T15:10:54;3.10;;;2.40;;
8113;SDS011;4099;52.684;9.918;2023-03-01T15:16:03;2.83;;;2.10;;
8113;SDS011;4099;52.684;9.918;2023-03-01T15:21:09;2.20;;;2.00;;
8113;SDS011;4099;52.684;9.918;2023-03-01T15:26:28;2.80;;;1.53;;
8113;SDS011;4099;52.684;9.918;2023-03-01T15:31:32;5.50;;;3.30;;
8113;SDS011;4099;52.684;9.918;2023-03-01T15:36:42;3.73;;;2.90;;
8113;SDS011;4099;52.684;9.918;2023-03-01T15:41:46;2.90;;;2.57;;
8113;SDS011;4099;52.684;9.918;2023-03-01T15:46:50;3.60;;;2.50;;
8113;SDS011;4099;52.684;9.918;2023-03-01T15:51:53;4.13;;;1.90;;
8113;SDS011;4099;52.684;9.918;2023-03-01T15:56:55;2.67;;;1.87;;
8113;SDS011;4099;52.684;9.918;2023-03-01T16:01:59;2.60;;;2.40;;
8113;SDS011;4099;52.684;9.918;2023-03-01T16:07:01;2.03;;;1.80;;
8113;SDS011;4099;52.684;9.918;2023-03-01T16:12:03;1.93;;;1.40;;
8113;SDS011;4099;52.684;9.918;2023-03-01T16:17:06;3.17;;;2.00;;
8113;SDS011;4099;52.684;9.918;2023-03-01T16:22:10;2.47;;;2.00;;
8113;SDS011;4099;52.684;9.918;2023-03-01T16:27:12;3.20;;;2.43;;
8113;SDS011;4099;52.684;9.918;2023-03-01T16:32:16;2.67;;;2.07;;
8113;SDS011;4099;52.684;9.918;2023-03-01T16:37:18;2.73;;;1.90;;
8113;SDS011;4099;52.684;9.918;2023-03-01T16:42:21;3.10;;;1.60;;
8113;SDS011;4099;52.684;9.918;2023-03-01T16:47:24;2.90;;;1.80;;
8113;SDS011;4099;52.684;9.918;2023-03-01T16:52:26;1.73;;;1.43;;
8113;SDS011;4099;52.684;9.918;2023-03-01T16:57:28;1.90;;;1.60;;
8113;SDS011;4099;52.684;9.918;2023-03-01T17:02:32;2.37;;;1.60;;
8113;SDS011;4099;52.684;9.918;2023-03-01T17:07:34;2.67;;;1.63;;
8113;SDS011;4099;52.684;9.918;2023-03-01T17:12:36;3.10;;;2.00;;
8113;SDS011;4099;52.684;9.918;2023-03-01T17:17:40;2.73;;;2.00;;
8113;SDS011;4099;52.684;9.918;2023-03-01T17:22:42;3.73;;;2.00;;
8113;SDS011;4099;52.684;9.918;2023-03-01T17:27:43;2.17;;;1.70;;
8113;SDS011;4099;52.684;9.918;2023-03-01T17:32:47;3.03;;;1.83;;
8113;SDS011;4099;52.684;9.918;2023-03-01T17:37:48;3.57;;;2.63;;
8113;SDS011;4099;52.684;9.918;2023-03-01T17:42:50;4.97;;;3.17;;
8113;SDS011;4099;52.684;9.918;2023-03-01T17:47:53;6.00;;;4.03;;
8113;SDS011;4099;52.684;9.918;2023-03-01T17:52:55;8.73;;;4.90;;
8113;SDS011;4099;52.684;9.918;2023-03-01T17:57:57;8.37;;;5.27;;
8113;SDS011;4099;52.684;9.918;2023-03-01T18:03:00;7.00;;;4.90;;
8113;SDS011;4099;52.684;9.918;2023-03-01T18:08:02;9.43;;;6.63;;
8113;SDS011;4099;52.684;9.918;2023-03-01T18:13:04;9.67;;;6.90;;
8113;SDS011;4099;52.684;9.918;2023-03-01T18:18:08;16.37;;;9.43;;
8113;SDS011;4099;52.684;9.918;2023-03-01T18:23:09;13.73;;;9.77;;
8113;SDS011;4099;52.684;9.918;2023-03-01T18:28:11;13.20;;;10.03;;
8113;SDS011;4099;52.684;9.918;2023-03-01T18:33:14;15.23;;;10.33;;
8113;SDS011;4099;52.684;9.918;2023-03-01T18:38:16;17.13;;;12.40;;
8113;SDS011;4099;52.684;9.918;2023-03-01T18:43:19;26.00;;;14.23;;
8113;SDS011;4099;52.684;9.918;2023-03-01T18:48:22;36.80;;;16.33;;
8113;SDS011;4099;52.684;9.918;2023-03-01T18:53:24;38.10;;;16.93;;
8113;SDS011;4099;52.684;9.918;2023-03-01T18:58:26;34.00;;;16.20;;
8113;SDS011;4099;52.684;9.918;2023-03-01T19:03:30;34.40;;;17.20;;
8113;SDS011;4099;52.684;9.918;2023-03-01T19:08:32;24.77;;;13.17;;
8113;SDS011;4099;52.684;9.918;2023-03-01T19:13:34;14.33;;;7.43;;
8113;SDS011;4099;52.684;9.918;2023-03-01T19:18:39;10.50;;;6.20;;
8113;SDS011;4099;52.684;9.918;2023-03-01T19:23:43;9.67;;;5.47;;
8113;SDS011;4099;52.684;9.918;2023-03-01T19:28:47;15.10;;;8.97;;
8113;SDS011;4099;52.684;9.918;2023-03-01T19:33:50;21.70;;;13.70;;
8113;SDS011;4099;52.684;9.918;2023-03-01T19:38:53;15.20;;;9.93;;
8113;SDS011;4099;52.684;9.918;2023-03-01T19:43:55;14.13;;;9.47;;
8113;SDS011;4099;52.684;9.918;2023-03-01T19:48:58;13.00;;;8.23;;
8113;SDS011;4099;52.684;9.918;2023-03-01T19:54:02;10.47;;;7.63;;
8113;SDS011;4099;52.684;9.918;2023-03-01T19:59:04;11.17;;;8.13;;
8113;SDS011;4099;52.684;9.918;2023-03-01T20:04:08;17.27;;;11.70;;
8113;SDS011;4099;52.684;9.918;2023-03-01T20:09:10;21.63;;;12.17;;
8113;SDS011;4099;52.684;9.918;2023-03-01T20:14:12;16.87;;;11.93;;
8113;SDS011;4099;52.684;9.918;2023-03-01T20:19:15;13.73;;;9.83;;
8113;SDS011;4099;52.684;9.918;2023-03-01T20:24:17;13.47;;;9.50;;
8113;SDS011;4099;52.684;9.918;2023-03-01T20:29:19;15.23;;;9.43;;
8113;SDS011;4099;52.684;9.918;2023-03-01T20:34:22;12.23;;;8.87;;
8113;SDS011;4099;52.684;9.918;2023-03-01T20:39:24;11.60;;;7.93;;
8113;SDS011;4099;52.684;9.918;2023-03-01T20:44:26;9.00;;;7.60;;
8113;SDS011;4099;52.684;9.918;2023-03-01T20:49:29;8.60;;;6.63;;
8113;SDS011;4099;52.684;9.918;2023-03-01T20:54:31;10.00;;;6.93;;
8113;SDS011;4099;52.684;9.918;2023-03-01T20:59:33;8.80;;;6.17;;
8113;SDS011;4099;52.684;9.918;2023-03-01T21:04:38;7.97;;;5.60;;
8113;SDS011;4099;52.684;9.918;2023-03-01T21:09:40;6.63;;;5.20;;
8113;SDS011;4099;52.684;9.918;2023-03-01T21:14:43;10.30;;;7.73;;
8113;SDS011;4099;52.684;9.918;2023-03-01T21:19:47;10.20;;;7.67;;
8113;SDS011;4099;52.684;9.918;2023-03-01T21:24:49;8.77;;;6.43;;
8113;SDS011;4099;52.684;9.918;2023-03-01T21:29:52;10.40;;;7.17;;
8113;SDS011;4099;52.684;9.918;2023-03-01T21:34:55;9.90;;;6.90;;
8113;SDS011;4099;52.684;9.918;2023-03-01T21:39:58;9.30;;;6.97;;
8113;SDS011;4099;52.684;9.918;2023-03-01T21:45:00;12.00;;;7.60;;
8113;SDS011;4099;52.684;9.918;2023-03-01T21:50:03;13.50;;;8.67;;
8113;SDS011;4099;52.684;9.918;2023-03-01T21:55:08;17.40;;;9.23;;
8113;SDS011;4099;52.684;9.918;2023-03-01T22:00:12;21.83;;;12.20;;
8113;SDS011;4099;52.684;9.918;2023-03-01T22:05:17;17.50;;;10.43;;
8113;SDS011;4099;52.684;9.918;2023-03-01T22:10:19;18.50;;;9.20;;
8113;SDS011;4099;52.684;9.918;2023-03-01T22:15:26;9.93;;;6.00;;
8113;SDS011;4099;52.684;9.918;2023-03-01T22:20:30;6.30;;;4.47;;
8113;SDS011;4099;52.684;9.918;2023-03-01T22:25:32;5.50;;;3.70;;
8113;SDS011;4099;52.684;9.918;2023-03-01T22:30:34;5.37;;;3.87;;
8113;SDS011;4099;52.684;9.918;2023-03-01T22:35:40;6.50;;;4.23;;
8113;SDS011;4099;52.684;9.918;2023-03-01T22:40:43;6.70;;;4.27;;
8113;SDS011;4099;52.684;9.918;2023-03-01T22:45:45;7.83;;;4.50;;
8113;SDS011;4099;52.684;9.918;2023-03-01T22:50:48;7.83;;;4.60;;
8113;SDS011;4099;52.684;9.918;2023-03-01T22:55:50;8.23;;;4.70;;
8113;SDS011;4099;52.684;9.918;2023-03-01T23:00:52;8.03;;;5.70;;
8113;SDS011;4099;52.684;9.918;2023-03-01T23:05:55;8.33;;;4.80;;
8113;SDS011;4099;52.684;9.918;2023-03-01T23:10:57;10.33;;;6.10;;
8113;SDS011;4099;52.684;9.918;2023-03-01T23:15:59;11.47;;;7.10;;
8113;SDS011;4099;52.684;9.918;2023-03-01T23:21:07;13.33;;;8.03;;
8113;SDS011;4099;52.684;9.918;2023-03-01T23:26:10;14.63;;;8.17;;
8113;SDS011;4099;52.684;9.918;2023-03-01T23:31:12;15.60;;;9.60;;
8113;SDS011;4099;52.684;9.918;2023-03-01T23:36:17;16.83;;;9.67;;
8113;SDS011;4099;52.684;9.918;2023-03-01T23:41:22;14.50;;;9.93;;
8113;SDS011;4099;52.684;9.918;2023-03-01T23:46:26;16.47;;;10.30;;
8113;SDS011;4099;52.684;9.918;2023-03-01T23:51:31;17.97;;;10.80;;
8113;SDS011;4099;52.684;9.918;2023-03-01T23:56:33;19.27;;;11.97;;
